Carlisle Airport


Codes: EGNC/CAX
Name: Carlisle Airport
City: Carlisle
Country: United Kingdom
Elevation: 190 ft.
Wikipedia:

Photos at Carlisle Airport


   Photos courtesy of SpottingLog. You can add your own sightings and photos by signing up for a free trial today.



No photos found.

Weather at Carlisle Airport


Time (UTC)DescriptionTempratureWindCloud coverageVisibilityPressureHumidity
19-Apr-2024 03:00Light Rain8°C16 mph, W70%10000m1014hPa85%
19-Apr-2024 06:00Broken Clouds7°C13 mph, NW63%10000m1014hPa86%
19-Apr-2024 09:00Scattered Clouds9°C13 mph, NW41%10000m1016hPa73%
19-Apr-2024 12:00Light Rain10°C7 mph, N53%8954m1019hPa66%
19-Apr-2024 15:00Light Rain10°C13 mph, N91%10000m1021hPa61%
19-Apr-2024 18:00Broken Clouds7°C11 mph, NE73%10000m1023hPa76%
19-Apr-2024 21:00Few Clouds3°C4 mph, NE13%10000m1026hPa78%
20-Apr-2024 00:00Few Clouds1°C2 mph, NE12%10000m1028hPa85%
20-Apr-2024 03:00Scattered Clouds1°C0 mph, NE29%10000m1029hPa87%
20-Apr-2024 06:00Scattered Clouds2°C2 mph, SW33%10000m1030hPa85%
20-Apr-2024 09:00Broken Clouds7°C2 mph, NW61%10000m1031hPa66%
20-Apr-2024 12:00Scattered Clouds10°C4 mph, W43%10000m1030hPa52%
20-Apr-2024 15:00Broken Clouds11°C9 mph, W71%10000m1030hPa59%
20-Apr-2024 18:00Broken Clouds9°C7 mph, W69%10000m1031hPa79%
20-Apr-2024 21:00Scattered Clouds4°C2 mph, E47%10000m1032hPa85%
21-Apr-2024 00:00Broken Clouds3°C4 mph, E58%10000m1032hPa88%
21-Apr-2024 03:00Broken Clouds3°C2 mph, SE71%10000m1032hPa89%
21-Apr-2024 06:00Broken Clouds5°C2 mph, SE80%10000m1032hPa82%
21-Apr-2024 09:00Overcast Clouds6°C2 mph, E100%10000m1033hPa83%
21-Apr-2024 12:00Light Rain7°C2 mph, NE100%10000m1034hPa84%
21-Apr-2024 15:00Overcast Clouds8°C2 mph, E100%10000m1033hPa84%
21-Apr-2024 18:00Overcast Clouds9°C4 mph, SE98%10000m1033hPa84%
21-Apr-2024 21:00Overcast Clouds7°C2 mph, SE100%10000m1034hPa85%
22-Apr-2024 00:00Overcast Clouds8°C2 mph, S100%10000m1033hPa84%
22-Apr-2024 03:00Light Rain7°C2 mph, SW100%10000m1032hPa93%
22-Apr-2024 06:00Light Rain7°C2 mph, SW100%10000m1031hPa98%
22-Apr-2024 09:00Overcast Clouds10°C4 mph, W100%10000m1029hPa89%
22-Apr-2024 12:00Overcast Clouds11°C2 mph, N100%10000m1028hPa85%
22-Apr-2024 15:00Overcast Clouds11°C2 mph, NE100%10000m1027hPa86%
22-Apr-2024 18:00Overcast Clouds11°C2 mph, NW94%10000m1026hPa85%
22-Apr-2024 21:00Light Rain9°C4 mph, NE93%10000m1027hPa92%
23-Apr-2024 00:00Overcast Clouds7°C7 mph, NE97%10000m1026hPa87%
23-Apr-2024 03:00Overcast Clouds5°C7 mph, NE99%10000m1026hPa84%
23-Apr-2024 06:00Broken Clouds4°C2 mph, NE79%10000m1026hPa91%
23-Apr-2024 09:00Clear Sky9°C9 mph, NE8%10000m1025hPa67%
23-Apr-2024 12:00Scattered Clouds11°C9 mph, N36%10000m1024hPa53%
23-Apr-2024 15:00Overcast Clouds11°C9 mph, NE99%10000m1023hPa55%
23-Apr-2024 18:00Overcast Clouds9°C4 mph, SW100%10000m1022hPa76%
23-Apr-2024 21:00Overcast Clouds7°C2 mph, SE100%10000m1022hPa78%
24-Apr-2024 00:00Overcast Clouds6°C7 mph, E100%10000m1021hPa78%